Time;durP1;ratioP1;P1;durP2;ratioP2;P2;SDS_P1;SDS_P2;PMS_P1;PMS_P2;Temp;Humidity;BMP_temperature;BMP_pressure;BME280_temperature;BME280_humidity;BME280_pressure;Samples;Min_cycle;Max_cycle;Signal;HPM_P1;HPM_P2
2023/09/10 00:01:03;;;;;;;1999.90;999.90;;;17.10;86.50;;;;;;5034942;28;20057;-76
2023/09/10 00:03:28;;;;;;;1999.90;999.90;;;17.10;86.80;;;;;;5036912;28;20040;-76
2023/09/10 00:05:54;;;;;;;1999.90;999.90;;;17.20;86.50;;;;;;5040631;28;20045;-76
2023/09/10 00:08:20;;;;;;;1999.90;999.90;;;17.20;86.00;;;;;;5040443;28;20052;-76
2023/09/10 00:10:46;;;;;;;1999.90;999.90;;;17.00;86.50;;;;;;5039533;28;20037;-76
2023/09/10 00:13:12;;;;;;;1999.90;999.90;;;17.00;86.90;;;;;;5043022;28;20029;-76
2023/09/10 00:15:38;;;;;;;1999.90;999.90;;;17.00;87.40;;;;;;5042266;28;20178;-76
2023/09/10 00:18:04;;;;;;;1999.90;999.90;;;17.10;87.60;;;;;;5041128;28;20021;-76
2023/09/10 00:20:30;;;;;;;1999.90;999.90;;;17.10;87.70;;;;;;5033961;28;20033;-75
2023/09/10 00:22:56;;;;;;;1999.90;999.90;;;17.10;87.80;;;;;;5040698;28;20035;-76
2023/09/10 00:25:22;;;;;;;1999.90;999.90;;;17.10;87.70;;;;;;5037046;28;20032;-76
2023/09/10 00:27:47;;;;;;;1999.90;999.90;;;17.10;88.00;;;;;;5038809;28;20049;-76
2023/09/10 00:30:13;;;;;;;1999.90;999.90;;;17.20;88.20;;;;;;5037105;28;20095;-76
2023/09/10 00:32:39;;;;;;;1999.90;999.90;;;17.20;88.10;;;;;;5031519;28;20035;-76
2023/09/10 00:35:05;;;;;;;1999.90;999.90;;;17.10;88.40;;;;;;5040992;28;20080;-76
2023/09/10 00:37:30;;;;;;;1999.90;999.90;;;17.10;89.10;;;;;;5035452;28;20041;-76
2023/09/10 00:39:56;;;;;;;1999.90;999.90;;;17.00;88.90;;;;;;5004917;28;20080;-76
2023/09/10 00:42:22;;;;;;;1999.90;999.90;;;17.00;88.80;;;;;;5040127;28;20457;-76
2023/09/10 00:44:48;;;;;;;1999.90;999.90;;;17.00;88.70;;;;;;5036418;28;20033;-76
2023/09/10 00:47:15;;;;;;;1999.90;999.90;;;17.00;89.10;;;;;;5041293;28;20033;-76
2023/09/10 00:49:41;;;;;;;1999.90;999.90;;;17.00;89.80;;;;;;5040415;28;20510;-76
2023/09/10 00:52:07;;;;;;;1999.90;999.90;;;16.90;88.40;;;;;;5039986;28;20071;-76
2023/09/10 00:54:34;;;;;;;1999.90;999.90;;;16.90;88.30;;;;;;5039918;28;20025;-76
2023/09/10 00:57:01;;;;;;;1999.90;999.90;;;17.00;88.80;;;;;;5037760;28;20112;-76
2023/09/10 00:59:30;;;;;;;1999.90;999.90;;;17.00;88.10;;;;;;5018541;28;20041;-76
2023/09/10 01:01:57;;;;;;;1999.90;999.90;;;16.80;87.80;;;;;;5039333;28;20558;-76
2023/09/10 01:04:23;;;;;;;1999.90;999.90;;;16.80;88.20;;;;;;5041469;28;20037;-76
2023/09/10 01:06:51;;;;;;;1999.90;999.90;;;16.80;88.70;;;;;;5035610;28;20545;-76
2023/09/10 01:09:17;;;;;;;1999.90;999.90;;;16.90;90.00;;;;;;5036573;28;20036;-77
2023/09/10 01:11:57;;;;;;;1999.90;999.90;;;16.90;90.30;;;;;;5042890;28;20026;-76
2023/09/10 01:14:30;;;;;;;1999.90;999.90;;;16.90;89.90;;;;;;5038829;28;20033;-76
2023/09/10 01:17:10;;;;;;;1999.90;999.90;;;16.80;89.40;;;;;;5036822;28;20033;-76
2023/09/10 01:19:42;;;;;;;1999.90;999.90;;;16.80;89.10;;;;;;5038167;28;20115;-76
2023/09/10 01:22:32;;;;;;;1999.90;999.90;;;16.80;88.80;;;;;;5036780;28;20080;-76
2023/09/10 01:25:18;;;;;;;1999.90;999.90;;;16.60;88.80;;;;;;5041691;28;20110;-76
2023/09/10 01:27:45;;;;;;;1999.90;999.90;;;16.70;89.00;;;;;;5037027;28;20376;-77
2023/09/10 01:30:11;;;;;;;1999.90;999.90;;;16.70;88.90;;;;;;5037626;28;20080;-77
2023/09/10 01:32:58;;;;;;;1999.90;999.90;;;16.70;88.40;;;;;;5032456;28;20151;-76
2023/09/10 01:35:39;;;;;;;1999.90;999.90;;;16.70;88.10;;;;;;5038386;28;20239;-76
2023/09/10 01:38:24;;;;;;;;;;;16.60;88.40;;;;;;5036893;28;20029;-76
2023/09/10 01:41:01;;;;;;;1999.90;999.90;;;16.60;88.40;;;;;;5038145;28;20387;-77
2023/09/10 01:43:27;;;;;;;1999.90;999.90;;;16.70;88.80;;;;;;5034948;28;20056;-77
2023/09/10 01:45:53;;;;;;;1999.90;999.90;;;16.60;88.40;;;;;;5038772;28;20065;-77
2023/09/10 01:48:19;;;;;;;1999.90;999.90;;;16.60;88.60;;;;;;5038300;28;20061;-77
2023/09/10 01:50:45;;;;;;;1999.90;999.90;;;16.60;88.70;;;;;;5039120;28;20094;-77
2023/09/10 01:53:10;;;;;;;1999.90;999.90;;;16.60;88.50;;;;;;5038221;28;20036;-77
2023/09/10 01:55:36;;;;;;;1999.90;999.90;;;16.50;89.00;;;;;;5063814;28;20487;-76
2023/09/10 01:58:02;;;;;;;1999.90;999.90;;;16.50;89.00;;;;;;5038468;28;20029;-77
2023/09/10 02:00:27;;;;;;;1999.90;999.90;;;16.50;88.10;;;;;;5040013;28;20365;-77
2023/09/10 02:02:53;;;;;;;1999.90;999.90;;;16.50;88.10;;;;;;5037179;28;20035;-77
2023/09/10 02:05:19;;;;;;;1999.90;999.90;;;16.30;88.00;;;;;;5037321;28;20028;-76
2023/09/10 02:07:44;;;;;;;1999.90;999.90;;;16.40;88.70;;;;;;5032805;28;20507;-76
2023/09/10 02:10:10;;;;;;;1999.90;999.90;;;16.20;88.70;;;;;;5040873;28;20029;-76
2023/09/10 02:12:36;;;;;;;1999.90;999.90;;;16.30;89.10;;;;;;5035678;28;20500;-77
2023/09/10 02:15:05;;;;;;;1999.90;999.90;;;16.30;89.10;;;;;;5032836;28;20045;-76
2023/09/10 02:17:31;;;;;;;1999.90;999.90;;;16.10;89.80;;;;;;5037338;28;20037;-77
2023/09/10 02:19:57;;;;;;;1999.90;999.90;;;16.10;89.60;;;;;;5035679;28;20053;-76
2023/09/10 02:22:22;;;;;;;1999.90;999.90;;;16.20;89.60;;;;;;5034540;28;20068;-76
2023/09/10 02:24:50;;;;;;;1999.90;999.90;;;16.20;89.50;;;;;;5041963;28;20037;-77
2023/09/10 02:27:16;;;;;;;1999.90;999.90;;;16.20;89.10;;;;;;5038028;28;20035;-77
2023/09/10 02:29:43;;;;;;;1999.90;999.90;;;16.20;89.10;;;;;;5036100;28;20042;-76
2023/09/10 02:32:09;;;;;;;1999.90;999.90;;;16.20;89.10;;;;;;5035099;28;20029;-77
2023/09/10 02:34:35;;;;;;;1999.90;999.90;;;16.30;89.00;;;;;;5033410;28;20400;-76
2023/09/10 02:37:02;;;;;;;1999.90;999.90;;;16.40;88.80;;;;;;5039755;28;20025;-76
2023/09/10 02:39:28;;;;;;;1999.90;999.90;;;16.30;88.60;;;;;;5037142;28;20052;-76
2023/09/10 02:41:53;;;;;;;1999.90;999.90;;;16.30;88.90;;;;;;5033240;28;20063;-77
2023/09/10 02:44:19;;;;;;;1999.90;999.90;;;16.00;88.90;;;;;;5041871;28;20395;-76
2023/09/10 02:46:45;;;;;;;1999.90;999.90;;;16.00;89.60;;;;;;5033702;28;20034;-77
2023/09/10 02:49:10;;;;;;;1999.90;999.90;;;16.00;90.10;;;;;;5039246;28;20037;-77
2023/09/10 02:51:36;;;;;;;1999.90;999.90;;;16.10;90.20;;;;;;5037139;28;20034;-76
2023/09/10 02:54:03;;;;;;;1999.90;999.90;;;15.90;90.50;;;;;;5035816;28;20033;-77
2023/09/10 02:56:28;;;;;;;1999.90;999.90;;;16.00;90.40;;;;;;5034085;28;20031;-76
2023/09/10 02:58:54;;;;;;;1999.90;999.90;;;16.10;90.40;;;;;;5036647;28;20128;-75
2023/09/10 03:01:20;;;;;;;1999.90;999.90;;;16.10;90.30;;;;;;5036645;28;20818;-77
2023/09/10 03:03:45;;;;;;;1999.90;999.90;;;16.10;90.10;;;;;;5030430;28;20033;-77
2023/09/10 03:06:15;;;;;;;1999.90;999.90;;;16.10;90.30;;;;;;5033681;28;20037;-77
2023/09/10 03:08:42;;;;;;;1999.90;999.90;;;16.00;90.60;;;;;;5034689;28;20953;-77
2023/09/10 03:11:09;;;;;;;1999.90;999.90;;;16.00;90.90;;;;;;5041340;28;20119;-76
2023/09/10 03:13:35;;;;;;;1999.90;999.90;;;16.00;91.30;;;;;;5035564;28;20121;-76
2023/09/10 03:16:00;;;;;;;1999.90;999.90;;;16.00;91.30;;;;;;5035066;28;20615;-77
2023/09/10 03:18:26;;;;;;;1999.90;999.90;;;15.90;91.40;;;;;;5033103;28;20526;-77
2023/09/10 03:20:53;;;;;;;1999.90;999.90;;;15.90;91.40;;;;;;5037671;28;20399;-76
2023/09/10 03:23:19;;;;;;;1999.90;999.90;;;15.90;91.50;;;;;;5039843;28;20065;-76
2023/09/10 03:25:45;;;;;;;1999.90;999.90;;;15.90;91.50;;;;;;5041335;28;20037;-76
2023/09/10 03:28:11;;;;;;;1999.90;999.90;;;15.80;91.50;;;;;;5034791;28;20435;-76
2023/09/10 03:30:37;;;;;;;1999.90;999.90;;;15.80;91.50;;;;;;5034100;28;20108;-76
2023/09/10 03:33:02;;;;;;;1999.90;999.90;;;15.80;91.90;;;;;;5032851;28;20021;-77
2023/09/10 03:35:28;;;;;;;1999.90;999.90;;;15.90;92.00;;;;;;5028475;28;20444;-77
2023/09/10 03:37:54;;;;;;;1999.90;999.90;;;15.80;92.00;;;;;;5037050;28;20052;-76
2023/09/10 03:40:19;;;;;;;1999.90;999.90;;;15.80;92.10;;;;;;5033853;28;20476;-76
2023/09/10 03:42:45;;;;;;;1999.90;999.90;;;15.80;92.20;;;;;;5039232;28;20063;-76
2023/09/10 03:45:11;;;;;;;1999.90;999.90;;;15.80;92.30;;;;;;5038337;28;20506;-76
2023/09/10 03:47:39;;;;;;;1999.90;999.90;;;15.80;92.20;;;;;;5030989;28;20052;-77
2023/09/10 03:50:05;;;;;;;1999.90;999.90;;;15.70;92.00;;;;;;5037240;28;20127;-77
2023/09/10 03:52:31;;;;;;;1999.90;999.90;;;15.80;91.80;;;;;;5036019;28;20033;-77
2023/09/10 03:54:57;;;;;;;1999.90;999.90;;;15.70;92.00;;;;;;5036091;28;20034;-77
2023/09/10 03:57:22;;;;;;;1999.90;999.90;;;15.70;92.20;;;;;;5042143;28;20040;-77
2023/09/10 03:59:48;;;;;;;1999.90;999.90;;;15.80;92.20;;;;;;5046641;28;20079;-75
2023/09/10 04:02:14;;;;;;;1999.90;999.90;;;15.80;92.00;;;;;;5048335;28;20032;-77
2023/09/10 04:04:41;;;;;;;1999.90;999.90;;;15.80;91.80;;;;;;5039382;28;20407;-77
2023/09/10 04:07:07;;;;;;;1999.90;999.90;;;15.70;91.90;;;;;;5040691;28;20029;-77
2023/09/10 04:09:32;;;;;;;1999.90;999.90;;;15.60;91.90;;;;;;5040187;28;20101;-77
2023/09/10 04:11:58;;;;;;;1999.90;999.90;;;15.70;91.90;;;;;;5042374;28;20030;-77
2023/09/10 04:14:24;;;;;;;1999.90;999.90;;;15.60;91.90;;;;;;5037449;28;20055;-76
2023/09/10 04:16:50;;;;;;;1999.90;999.90;;;15.60;92.10;;;;;;5039798;28;20064;-76
2023/09/10 04:19:15;;;;;;;1999.90;999.90;;;15.60;92.10;;;;;;5029019;28;20061;-76
2023/09/10 04:21:41;;;;;;;1999.90;999.90;;;15.50;92.20;;;;;;5034252;28;20044;-76
2023/09/10 04:24:07;;;;;;;1999.90;999.90;;;15.50;92.20;;;;;;5033640;28;20115;-76
2023/09/10 04:26:33;;;;;;;1999.90;999.90;;;15.50;92.30;;;;;;5036323;28;20438;-77
2023/09/10 04:28:59;;;;;;;1999.90;999.90;;;15.50;92.40;;;;;;5076204;28;20515;-77
2023/09/10 04:31:25;;;;;;;1999.90;999.90;;;15.50;92.30;;;;;;5036163;28;20040;-77
2023/09/10 04:33:50;;;;;;;1999.90;999.90;;;15.50;92.30;;;;;;5036550;28;20501;-77
2023/09/10 04:36:16;;;;;;;1999.90;999.90;;;15.50;92.30;;;;;;5039253;28;20108;-77
2023/09/10 04:38:41;;;;;;;1999.90;999.90;;;15.50;92.20;;;;;;5035623;28;20117;-77
2023/09/10 04:41:07;;;;;;;1999.90;999.90;;;15.40;92.30;;;;;;5041125;28;20040;-77
2023/09/10 04:43:33;;;;;;;1999.90;999.90;;;15.40;92.40;;;;;;5035326;28;20033;-77
2023/09/10 04:45:59;;;;;;;1999.90;999.90;;;15.40;92.40;;;;;;5038393;28;20055;-77
2023/09/10 04:48:24;;;;;;;1999.90;999.90;;;15.50;92.50;;;;;;5038053;28;20085;-77
2023/09/10 04:50:50;;;;;;;1999.90;999.90;;;15.50;92.40;;;;;;5040412;28;20033;-76
2023/09/10 04:53:17;;;;;;;1999.90;999.90;;;15.40;92.20;;;;;;5034226;28;20025;-78
2023/09/10 04:55:42;;;;;;;1999.90;999.90;;;15.50;92.10;;;;;;5037933;28;20558;-76
2023/09/10 04:58:10;;;;;;;1999.90;999.90;;;15.40;92.00;;;;;;5041148;28;20033;-78
2023/09/10 05:00:40;;;;;;;1999.90;999.90;;;15.40;91.80;;;;;;5036267;28;20034;-76
2023/09/10 05:03:06;;;;;;;1999.90;999.90;;;15.20;91.60;;;;;;5038183;28;20108;-76
2023/09/10 05:05:31;;;;;;;1999.90;999.90;;;15.20;91.70;;;;;;5038112;28;20124;-77
2023/09/10 05:07:57;;;;;;;1999.90;999.90;;;15.40;91.80;;;;;;5035575;28;20037;-77
2023/09/10 05:10:22;;;;;;;1999.90;999.90;;;15.40;91.80;;;;;;5039735;28;20517;-76
2023/09/10 05:12:52;;;;;;;1999.90;999.90;;;15.40;91.50;;;;;;5037206;28;20044;-77
2023/09/10 05:15:17;;;;;;;1999.90;999.90;;;15.50;91.50;;;;;;5039666;28;20103;-76
2023/09/10 05:17:43;;;;;;;1999.90;999.90;;;15.50;91.40;;;;;;5036924;28;20038;-77
2023/09/10 05:20:09;;;;;;;1999.90;999.90;;;15.60;91.50;;;;;;5036577;28;20513;-76
2023/09/10 05:22:35;;;;;;;1999.90;999.90;;;15.60;91.40;;;;;;5031860;28;20492;-77
2023/09/10 05:25:00;;;;;;;1999.90;999.90;;;15.60;91.40;;;;;;5036980;28;20489;-76
2023/09/10 05:27:26;;;;;;;1999.90;999.90;;;15.60;91.50;;;;;;5035009;28;20055;-76
2023/09/10 05:29:52;;;;;;;1999.90;999.90;;;15.70;91.50;;;;;;5036698;28;20092;-77
2023/09/10 05:32:17;;;;;;;1999.90;999.90;;;15.70;91.30;;;;;;5038324;28;20037;-77
2023/09/10 05:34:43;;;;;;;1999.90;999.90;;;15.70;91.30;;;;;;5037049;28;20028;-76
2023/09/10 05:37:09;;;;;;;1999.90;999.90;;;15.70;91.60;;;;;;5042389;28;20053;-77
2023/09/10 05:39:35;;;;;;;1999.90;999.90;;;15.80;91.70;;;;;;5030315;28;20112;-76
2023/09/10 05:42:01;;;;;;;1999.90;999.90;;;15.80;91.60;;;;;;5038864;28;20040;-77
2023/09/10 05:44:26;;;;;;;1999.90;999.90;;;15.80;91.40;;;;;;5038277;28;20024;-76
2023/09/10 05:46:52;;;;;;;1999.90;999.90;;;15.80;91.40;;;;;;5042905;28;20041;-75
2023/09/10 05:49:17;;;;;;;1999.90;999.90;;;15.90;91.50;;;;;;5039923;28;20391;-77
2023/09/10 05:51:43;;;;;;;1999.90;999.90;;;15.90;91.70;;;;;;5035511;28;20446;-76
2023/09/10 05:54:09;;;;;;;1999.90;999.90;;;15.90;91.70;;;;;;5036792;28;20060;-76
2023/09/10 05:56:35;;;;;;;1999.90;999.90;;;16.00;91.80;;;;;;5035956;28;20033;-77
2023/09/10 05:59:01;;;;;;;1999.90;999.90;;;16.00;91.70;;;;;;5037761;28;20410;-76
2023/09/10 06:01:26;;;;;;;1999.90;999.90;;;16.00;91.70;;;;;;5033694;28;20096;-77
2023/09/10 06:03:52;;;;;;;1999.90;999.90;;;16.10;91.70;;;;;;5047428;28;20505;-75
2023/09/10 06:06:18;;;;;;;1999.90;999.90;;;16.20;91.50;;;;;;5049413;28;20033;-77
2023/09/10 06:08:43;;;;;;;1999.90;999.90;;;16.30;91.40;;;;;;5032334;28;20048;-76
2023/09/10 06:11:09;;;;;;;1999.90;999.90;;;16.40;91.40;;;;;;5041268;28;20036;-76
2023/09/10 06:13:35;;;;;;;1999.90;999.90;;;16.50;91.50;;;;;;5036644;28;20091;-76
2023/09/10 06:16:01;;;;;;;1999.90;999.90;;;16.60;91.50;;;;;;5036997;28;20033;-77
2023/09/10 06:18:26;;;;;;;1999.90;999.90;;;16.80;91.30;;;;;;5038224;28;20475;-77
2023/09/10 06:20:52;;;;;;;1999.90;999.90;;;17.00;91.30;;;;;;5033574;28;20056;-75
2023/09/10 06:23:18;;;;;;;1999.90;999.90;;;17.30;91.40;;;;;;5040419;28;20052;-77
2023/09/10 06:25:44;;;;;;;1999.90;999.90;;;17.50;91.10;;;;;;5031025;28;20036;-77
2023/09/10 06:28:09;;;;;;;1999.90;999.90;;;17.80;90.90;;;;;;5040526;28;20052;-76
2023/09/10 06:30:36;;;;;;;1999.90;999.90;;;17.80;90.80;;;;;;5034787;28;20087;-76
2023/09/10 06:33:01;;;;;;;1999.90;999.90;;;17.90;90.80;;;;;;5036452;28;20514;-77
2023/09/10 06:35:27;;;;;;;1999.90;999.90;;;18.00;90.70;;;;;;5033155;28;20029;-77
2023/09/10 06:37:53;;;;;;;1999.90;999.90;;;18.00;90.60;;;;;;5035389;28;20030;-76
2023/09/10 06:40:19;;;;;;;1999.90;999.90;;;18.20;90.50;;;;;;5032969;28;20430;-76
2023/09/10 06:42:45;;;;;;;1999.90;999.90;;;18.40;90.20;;;;;;5035630;28;20443;-76
2023/09/10 06:45:10;;;;;;;1999.90;999.90;;;18.50;90.00;;;;;;5030613;28;20033;-76
2023/09/10 06:47:36;;;;;;;1999.90;999.90;;;18.60;89.50;;;;;;5033866;28;20103;-77
2023/09/10 06:50:02;;;;;;;1999.90;999.90;;;18.90;88.80;;;;;;5037913;28;20040;-76
2023/09/10 06:52:28;;;;;;;1999.90;999.90;;;18.90;87.10;;;;;;5031732;28;20037;-76
2023/09/10 06:54:54;;;;;;;1999.90;999.90;;;18.90;88.60;;;;;;5035170;28;20037;-76
2023/09/10 06:57:19;;;;;;;1999.90;999.90;;;19.10;87.70;;;;;;5036583;28;20070;-76
2023/09/10 06:59:45;;;;;;;1999.90;999.90;;;19.20;86.60;;;;;;5031330;28;20034;-76
2023/09/10 07:02:11;;;;;;;1999.90;999.90;;;19.40;87.60;;;;;;5035715;28;20044;-75
2023/09/10 07:04:36;;;;;;;1999.90;999.90;;;19.40;85.90;;;;;;5032008;28;20025;-77
2023/09/10 07:07:02;;;;;;;1999.90;999.90;;;19.40;86.60;;;;;;5033825;28;20048;-77
2023/09/10 07:09:28;;;;;;;1999.90;999.90;;;19.40;86.50;;;;;;5015022;28;20064;-77
2023/09/10 07:11:54;;;;;;;1999.90;999.90;;;19.50;85.60;;;;;;5038438;28;20030;-77
2023/09/10 07:14:21;;;;;;;1999.90;999.90;;;19.40;85.90;;;;;;5037295;28;20017;-77
2023/09/10 07:16:47;;;;;;;1999.90;999.90;;;19.30;86.20;;;;;;5031584;28;20053;-76
2023/09/10 07:19:14;;;;;;;1999.90;999.90;;;19.30;86.30;;;;;;5036697;28;20695;-76
2023/09/10 07:21:39;;;;;;;1999.90;999.90;;;19.40;86.30;;;;;;5033905;28;20515;-75
2023/09/10 07:24:06;;;;;;;1999.90;999.90;;;19.40;85.70;;;;;;5035748;28;20034;-76
2023/09/10 07:26:36;;;;;;;1999.90;999.90;;;19.60;85.50;;;;;;5032129;28;20060;-76
2023/09/10 07:29:04;;;;;;;1999.90;999.90;;;19.70;85.70;;;;;;5036944;28;20095;-76
2023/09/10 07:31:30;;;;;;;1999.90;999.90;;;19.80;85.40;;;;;;5038671;28;20135;-76
2023/09/10 07:33:55;;;;;;;1999.90;999.90;;;20.00;84.50;;;;;;5040156;28;20594;-76
2023/09/10 07:36:21;;;;;;;1999.90;999.90;;;20.20;84.50;;;;;;5033970;28;20034;-75
2023/09/10 07:38:48;;;;;;;1999.90;999.90;;;20.20;84.30;;;;;;5032212;28;20034;-75
2023/09/10 07:41:15;;;;;;;1999.90;999.90;;;20.10;84.90;;;;;;5044126;28;20021;-80
2023/09/10 07:43:41;;;;;;;1999.90;999.90;;;20.10;85.60;;;;;;5015573;28;20030;-78
2023/09/10 07:46:07;;;;;;;1999.90;999.90;;;20.30;85.00;;;;;;5033351;28;20034;-78
2023/09/10 07:48:33;;;;;;;1999.90;999.90;;;20.50;83.80;;;;;;5034714;28;20034;-78
2023/09/10 07:50:59;;;;;;;1999.90;999.90;;;20.80;83.90;;;;;;5038409;28;20032;-78
2023/09/10 07:53:25;;;;;;;1999.90;999.90;;;21.30;82.40;;;;;;5033416;28;20048;-78
2023/09/10 07:55:51;;;;;;;1999.90;999.90;;;21.50;79.70;;;;;;5035164;28;20052;-80
2023/09/10 07:58:17;;;;;;;1999.90;999.90;;;21.70;78.80;;;;;;5039892;28;20114;-79
2023/09/10 08:00:43;;;;;;;1999.90;999.90;;;21.90;79.80;;;;;;5038853;28;20080;-80
2023/09/10 08:03:08;;;;;;;1999.90;999.90;;;22.00;78.40;;;;;;5037940;28;20513;-80
2023/09/10 08:05:34;;;;;;;1999.90;999.90;;;21.90;78.40;;;;;;5035379;28;20044;-79
2023/09/10 08:08:04;;;;;;;1999.90;999.90;;;21.90;79.60;;;;;;5034040;28;20357;-77
2023/09/10 08:10:30;;;;;;;1999.90;999.90;;;21.90;80.00;;;;;;5030503;28;20045;-77
2023/09/10 08:12:56;;;;;;;1999.90;999.90;;;22.20;78.30;;;;;;5038234;28;20047;-77
2023/09/10 08:15:22;;;;;;;1999.90;999.90;;;22.60;78.80;;;;;;5040454;28;20029;-76
2023/09/10 08:17:51;;;;;;;1999.90;999.90;;;22.70;76.80;;;;;;5066630;28;20040;-78
2023/09/10 08:20:16;;;;;;;1999.90;999.90;;;22.80;75.50;;;;;;5023706;28;20068;-78
2023/09/10 08:22:43;;;;;;;1999.90;999.90;;;23.00;75.60;;;;;;5035294;28;20080;-78
2023/09/10 08:25:09;;;;;;;1999.90;999.90;;;23.20;75.00;;;;;;5034413;28;20454;-77
2023/09/10 08:27:38;;;;;;;1999.90;999.90;;;23.40;74.10;;;;;;5018483;28;20045;-77
2023/09/10 08:30:05;;;;;;;1999.90;999.90;;;23.40;72.60;;;;;;5031033;28;20104;-79
2023/09/10 08:32:33;;;;;;;1999.90;999.90;;;23.20;74.30;;;;;;5039989;28;20029;-80
2023/09/10 08:35:00;;;;;;;1999.90;999.90;;;23.40;74.10;;;;;;5039334;28;20051;-79
2023/09/10 08:37:26;;;;;;;1999.90;999.90;;;23.50;72.40;;;;;;5028562;28;20033;-79
2023/09/10 08:39:52;;;;;;;1999.90;999.90;;;23.60;72.70;;;;;;5033299;28;20083;-78
2023/09/10 08:42:40;;;;;;;1999.90;999.90;;;23.70;72.10;;;;;;5032493;28;20020;-80
2023/09/10 08:45:07;;;;;;;1999.90;999.90;;;23.70;72.00;;;;;;5062383;28;20391;-80
2023/09/10 08:47:41;;;;;;;1999.90;999.90;;;23.90;70.70;;;;;;5035811;28;20033;-80
2023/09/10 08:50:12;;;;;;;1999.90;999.90;;;23.90;71.20;;;;;;5027008;28;20476;-80
2023/09/10 08:52:39;;;;;;;1999.90;999.90;;;23.80;71.10;;;;;;5031091;28;20116;-81
2023/09/10 08:55:07;;;;;;;1999.90;999.90;;;24.00;70.40;;;;;;5033635;28;20034;-81
2023/09/10 08:57:37;;;;;;;1999.90;999.90;;;23.90;70.90;;;;;;5032022;28;20488;-81
2023/09/10 09:00:12;;;;;;;1999.90;999.90;;;24.20;70.30;;;;;;5035277;28;20083;-83
2023/09/10 09:02:47;;;;;;;1999.90;999.90;;;24.50;70.70;;;;;;5010827;28;20033;-82
2023/09/10 09:05:13;;;;;;;1999.90;999.90;;;24.80;68.80;;;;;;5031741;28;20045;-82
2023/09/10 09:07:52;;;;;;;1999.90;999.90;;;24.60;69.50;;;;;;5029559;28;20029;-81
2023/09/10 09:10:26;;;;;;;1999.90;999.90;;;24.40;68.80;;;;;;5031035;28;20029;-82
2023/09/10 09:12:56;;;;;;;1999.90;999.90;;;24.40;69.40;;;;;;5034296;28;20021;-82
2023/09/10 09:15:22;;;;;;;1999.90;999.90;;;24.20;69.90;;;;;;5036296;28;20025;-82
2023/09/10 09:17:50;;;;;;;1999.90;999.90;;;24.10;70.20;;;;;;5034540;28;20056;-82
2023/09/10 09:20:18;;;;;;;1999.90;999.90;;;24.00;71.00;;;;;;5035373;28;20064;-82
2023/09/10 09:22:49;;;;;;;1999.90;999.90;;;24.30;70.70;;;;;;5036597;28;20048;-82
2023/09/10 09:25:15;;;;;;;1999.90;999.90;;;24.80;69.50;;;;;;5032534;28;20033;-79
2023/09/10 09:27:43;;;;;;;1999.90;999.90;;;25.00;66.70;;;;;;5036569;28;20045;-83
2023/09/10 09:30:11;;;;;;;1999.90;999.90;;;25.00;65.00;;;;;;5031197;28;20081;-83
2023/09/10 09:32:38;;;;;;;1999.90;999.90;;;25.30;65.20;;;;;;5040398;28;20101;-83
2023/09/10 09:35:05;;;;;;;1999.90;999.90;;;25.60;64.40;;;;;;5030646;28;20488;-82
2023/09/10 09:37:33;;;;;;;1999.90;999.90;;;25.90;63.50;;;;;;5035434;28;20041;-82
2023/09/10 09:40:03;;;;;;;1999.90;999.90;;;26.10;62.70;;;;;;5031079;28;20037;-81
2023/09/10 09:42:30;;;;;;;1999.90;999.90;;;26.40;62.40;;;;;;5036830;28;20478;-82
2023/09/10 09:44:57;;;;;;;1999.90;999.90;;;26.80;61.20;;;;;;5039842;28;20029;-83
2023/09/10 09:47:23;;;;;;;1999.90;999.90;;;26.80;59.90;;;;;;5034707;28;20029;-83
2023/09/10 09:49:49;;;;;;;1999.90;999.90;;;26.60;61.00;;;;;;5023201;28;20167;-82
2023/09/10 09:52:18;;;;;;;1999.90;999.90;;;26.80;60.20;;;;;;5036663;28;20664;-82
2023/09/10 09:54:45;;;;;;;1999.90;999.90;;;27.00;59.50;;;;;;5046866;28;20025;-82
2023/09/10 09:57:11;;;;;;;1999.90;999.90;;;27.20;63.00;;;;;;5031423;28;20079;-82
2023/09/10 09:59:38;;;;;;;1999.90;999.90;;;27.50;59.50;;;;;;5030133;28;20025;-82
2023/09/10 10:02:04;;;;;;;1999.90;999.90;;;27.20;60.40;;;;;;5033276;28;20059;-79
2023/09/10 10:04:34;;;;;;;1999.90;999.90;;;27.40;61.00;;;;;;5018862;28;20049;-83
2023/09/10 10:07:02;;;;;;;1999.90;999.90;;;27.70;60.00;;;;;;5030478;28;20113;-79
2023/09/10 10:09:35;;;;;;;1999.90;999.90;;;28.50;59.20;;;;;;5035437;28;20032;-80
2023/09/10 10:12:05;;;;;;;1999.90;999.90;;;28.50;55.70;;;;;;5031449;28;20029;-80
2023/09/10 10:14:32;;;;;;;1999.90;999.90;;;27.90;56.20;;;;;;5033272;28;20447;-80
2023/09/10 10:17:05;;;;;;;1999.90;999.90;;;27.50;57.20;;;;;;5034429;28;20025;-80
2023/09/10 10:19:32;;;;;;;1999.90;999.90;;;28.00;58.70;;;;;;5034241;28;20037;-80
2023/09/10 10:21:59;;;;;;;1999.90;999.90;;;28.80;55.70;;;;;;5040798;28;20028;-80
2023/09/10 10:24:25;;;;;;;1999.90;999.90;;;29.30;54.20;;;;;;5035690;28;20083;-80
2023/09/10 10:26:52;;;;;;;1999.90;999.90;;;29.40;56.00;;;;;;5035299;28;20037;-80
2023/09/10 10:29:19;;;;;;;1999.90;999.90;;;29.50;51.90;;;;;;5038403;28;20113;-80
2023/09/10 10:31:48;;;;;;;1999.90;999.90;;;29.80;51.60;;;;;;5034744;28;20388;-80
2023/09/10 10:34:23;;;;;;;1999.90;999.90;;;29.60;53.00;;;;;;5037925;28;20021;-79
2023/09/10 10:37:10;;;;;;;1999.90;999.90;;;29.80;50.90;;;;;;5037853;28;20057;-79
2023/09/10 10:39:54;;;;;;;1999.90;999.90;;;29.00;51.90;;;;;;5034688;28;20029;-80
2023/09/10 10:42:33;;;;;;;1999.90;999.90;;;29.20;52.10;;;;;;5030584;28;20088;-80
2023/09/10 10:45:04;;;;;;;1999.90;999.90;;;29.50;52.70;;;;;;5037355;28;20045;-79
2023/09/10 10:47:33;;;;;;;1999.90;999.90;;;30.60;50.00;;;;;;5033984;28;20073;-80
2023/09/10 10:50:00;;;;;;;1999.90;999.90;;;31.00;48.00;;;;;;5035826;28;20043;-81
2023/09/10 10:52:30;;;;;;;1999.90;999.90;;;30.40;47.70;;;;;;5033864;28;20506;-85
2023/09/10 10:54:57;;;;;;;1999.90;999.90;;;30.50;46.90;;;;;;5033400;28;20059;-81
2023/09/10 10:57:25;;;;;;;1999.90;999.90;;;29.50;48.70;;;;;;5031165;28;20033;-78
2023/09/10 10:59:51;;;;;;;1999.90;999.90;;;29.70;52.30;;;;;;5033985;28;20060;-80
2023/09/10 11:02:22;;;;;;;1999.90;999.90;;;30.90;48.20;;;;;;5040970;28;20021;-80
2023/09/10 11:04:55;;;;;;;1999.90;999.90;;;30.50;44.50;;;;;;5043337;28;20025;-80
2023/09/10 11:07:22;;;;;;;1999.90;999.90;;;30.10;48.00;;;;;;5018694;28;20488;-80
2023/09/10 11:09:48;;;;;;;1999.90;999.90;;;31.20;45.50;;;;;;5040729;28;20036;-80
2023/09/10 11:12:14;;;;;;;1999.90;999.90;;;31.60;43.80;;;;;;5037183;28;20406;-80
2023/09/10 11:14:58;;;;;;;1999.90;999.90;;;32.50;42.10;;;;;;5039887;28;20077;-80
2023/09/10 11:17:32;;;;;;;1999.90;999.90;;;30.70;43.80;;;;;;5041856;28;20104;-80
2023/09/10 11:19:58;;;;;;;1999.90;999.90;;;30.50;44.20;;;;;;5070474;28;20460;-80
2023/09/10 11:22:24;;;;;;;1999.90;999.90;;;30.70;45.00;;;;;;5039787;28;20502;-79
2023/09/10 11:25:07;;;;;;;1999.90;999.90;;;30.20;45.50;;;;;;5039236;28;20025;-80
2023/09/10 11:27:34;;;;;;;1999.90;999.90;;;30.10;44.90;;;;;;5040977;28;20052;-79
2023/09/10 11:30:07;;;;;;;1999.90;999.90;;;30.10;45.70;;;;;;5053753;28;20082;-79
2023/09/10 11:32:32;;;;;;;1999.90;999.90;;;30.00;45.30;;;;;;5023724;28;20140;-79
2023/09/10 11:35:16;;;;;;;1999.90;999.90;;;30.00;43.50;;;;;;5043172;28;20026;-78
2023/09/10 11:37:45;;;;;;;1999.90;999.90;;;29.70;46.10;;;;;;5035867;28;20107;-78
2023/09/10 11:40:15;;;;;;;1999.90;999.90;;;29.10;48.20;;;;;;5041283;28;20498;-78
2023/09/10 11:42:44;;;;;;;;;;;28.80;50.00;;;;;;5037989;28;20112;-79
2023/09/10 11:45:11;;;;;;;1999.90;999.90;;;29.50;47.30;;;;;;5034996;28;19940;-79
2023/09/10 11:47:47;;;;;;;1999.90;999.90;;;30.90;44.40;;;;;;5039289;28;20042;-79
2023/09/10 11:50:19;;;;;;;1999.90;999.90;;;32.30;40.40;;;;;;5024036;28;20043;-80
2023/09/10 11:52:45;;;;;;;1999.90;999.90;;;33.30;37.90;;;;;;5042516;28;20499;-80
2023/09/10 11:55:11;;;;;;;1999.90;999.90;;;33.40;34.00;;;;;;5032958;28;20057;-82
2023/09/10 11:57:37;;;;;;;1999.90;999.90;;;32.30;36.80;;;;;;5036625;28;20112;-80
2023/09/10 12:00:05;;;;;;;1999.90;999.90;;;30.70;42.90;;;;;;5038394;28;20667;-78
2023/09/10 12:02:31;;;;;;;1999.90;999.90;;;31.70;40.50;;;;;;5035740;28;20041;-78